Mekhanik Cherevko — URAG — position and weather

sailwx.info

Track history (hours):
 
Tides and Currents Weather Stations Pressure Air Temp Water Temp Dewpoint Dewpoint Depression Visibility Wind Speed Wind Dir Waves Ship Positions

Mekhanik Cherevko

Last reported at 2018-Jun-21 08:30 UTC. Time now 2018-Jun-21 08:44 UTC.
Position N 42°19' E 029°41'.

Length 98 m; draft 2.8 m.

Type: Cargo ship. MMSI: 272308000.

Date/timePositionNaut miles runAvg speedWind from/ knotsBaromVisibWave heightAir tempDewpointWater temp
2018-Jun-21 08:30N 42°19' E 029°41'5 9.4
2018-Jun-21 08:00N 42°14' E 029°39'5 9.5
2018-Jun-21 07:30N 42°09' E 029°37'5 9.5
2018-Jun-21 07:00N 42°05' E 029°35'  
2018-Jun-16 08:41N 42°44' E 029°45'2 9.9
2018-Jun-16 08:26N 42°47' E 029°46'410.1
2018-Jun-16 08:00N 42°51' E 029°48'510.0
2018-Jun-16 07:30N 42°55' E 029°50'510.0
2018-Jun-16 06:59N 43°00' E 029°52'1210.0
2018-Jun-16 05:45N 43°12' E 029°58'310.1
2018-Jun-16 05:27N 43°15' E 029°59'510.2
2018-Jun-16 05:00N 43°19' E 030°01'510.2
2018-Jun-16 04:30N 43°24' E 030°04'510.2
2018-Jun-16 04:00N 43°29' E 030°06'510.2
2018-Jun-16 03:30N 43°34' E 030°08'510.1
2018-Jun-16 03:01N 43°38' E 030°11'510.1
2018-Jun-16 02:30N 43°43' E 030°13'5 9.9
2018-Jun-16 02:00N 43°48' E 030°16'5 9.5
2018-Jun-16 01:30N 43°52' E 030°18'6 9.1
2018-Jun-16 00:52N 43°58' E 030°21'3 9.0
2018-Jun-16 00:30N 44°01' E 030°22'5 9.2
2018-Jun-15 23:59N 44°05' E 030°25'5 9.2
2018-Jun-15 23:29N 44°09' E 030°27'5 9.1
2018-Jun-15 22:56N 44°14' E 030°29'5 9.1
2018-Jun-15 22:26N 44°18' E 030°31'4 9.0
2018-Jun-15 22:00N 44°22' E 030°33'5 9.2
2018-Jun-15 21:25N 44°27' E 030°35'4 9.2
2018-Jun-15 21:00N 44°31' E 030°37'5 9.3
2018-Jun-15 20:28N 44°36' E 030°39'4 9.3
2018-Jun-15 20:00N 44°40' E 030°40'100 8.4
2018-Jun-15 08:01N 46°20' E 030°55'0 9.5
2018-Jun-15 07:58N 46°20' E 030°55'4 9.5
2018-Jun-15 07:30N 46°24' E 030°55'18 6.8
2018-Jun-15 04:51N 46°35' E 031°16'4 9.4
2018-Jun-15 04:26N 46°35' E 031°22'5 9.0
2018-Jun-15 03:52N 46°36' E 031°29'3 8.4
2018-Jun-15 03:27N 46°35' E 031°34'4 9.2
2018-Jun-15 03:00N 46°36' E 031°40'5 9.2
2018-Jun-15 02:30N 46°36' E 031°47'5 8.7
2018-Jun-15 01:58N 46°34' E 031°53'4 8.9
2018-Jun-15 01:30N 46°33' E 031°59'5 8.9
2018-Jun-15 00:59N 46°32' E 032°06'135 6.6
2018-Jun-14 04:30N 47°34' E 035°02'6 8.8
2018-Jun-14 03:48N 47°40' E 035°07'3 9.1
2018-Jun-14 03:29N 47°42' E 035°08'4 8.2
2018-Jun-14 03:00N 47°46' E 035°09'4 7.7
2018-Jun-14 02:30N 47°50' E 035°07'2 4.9
2018-Jun-14 02:00N 47°52' E 035°05'0 0.1
2018-Jun-14 01:30N 47°52' E 035°06'1 2.0
2018-Jun-14 01:01N 47°53' E 035°06'0 0.8
2018-Jun-14 00:29N 47°53' E 035°07'0 0.0
2018-Jun-13 23:53N 47°53' E 035°07'0 0.0
2018-Jun-13 23:29N 47°53' E 035°07'0 0.0
2018-Jun-13 22:59N 47°53' E 035°07'0 0.0
2018-Jun-13 22:29N 47°53' E 035°07'0 0.0
2018-Jun-13 21:59N 47°53' E 035°07'0 0.0
2018-Jun-13 21:29N 47°53' E 035°07'0 0.0
2018-Jun-13 20:59N 47°53' E 035°07'0 0.0
2018-Jun-13 20:29N 47°53' E 035°07'0 0.0
2018-Jun-13 19:59N 47°53' E 035°07'0 0.0
2018-Jun-13 19:29N 47°53' E 035°07'0 0.0
2018-Jun-13 18:59N 47°53' E 035°07'0 0.0
2018-Jun-13 18:29N 47°53' E 035°07'0 0.0
2018-Jun-13 17:59N 47°53' E 035°07'0 0.0
2018-Jun-13 17:29N 47°53' E 035°07'0 0.0
2018-Jun-13 16:59N 47°53' E 035°07'0 0.0
2018-Jun-13 16:29N 47°53' E 035°07'0 0.0
2018-Jun-13 15:59N 47°53' E 035°07'0 0.0
2018-Jun-13 15:29N 47°53' E 035°07'0 0.0
2018-Jun-13 14:59N 47°53' E 035°07'0 0.0
2018-Jun-13 14:29N 47°53' E 035°07'0 0.0
2018-Jun-13 13:47N 47°53' E 035°07'0 0.0
2018-Jun-13 13:29N 47°53' E 035°07'0 0.0
2018-Jun-13 12:59N 47°53' E 035°07'0 0.0
2018-Jun-13 12:29N 47°53' E 035°07'0 0.0
2018-Jun-13 11:59N 47°53' E 035°07'0 0.0
2018-Jun-13 11:29N 47°53' E 035°07'0 0.0
2018-Jun-13 10:59N 47°53' E 035°07'0 0.0
2018-Jun-13 10:29N 47°53' E 035°07'0 0.0
2018-Jun-13 09:59N 47°53' E 035°07'0 0.0
2018-Jun-13 09:29N 47°53' E 035°07'0 0.0
2018-Jun-13 08:59N 47°53' E 035°07'0 0.0
2018-Jun-13 08:29N 47°53' E 035°07'0 0.0
2018-Jun-13 07:59N 47°53' E 035°07'0 0.0
2018-Jun-13 07:29N 47°53' E 035°07'0 0.0
2018-Jun-13 06:59N 47°53' E 035°07'0 0.0
2018-Jun-13 06:29N 47°53' E 035°07'0 0.0
2018-Jun-13 05:59N 47°53' E 035°07'0 0.0
2018-Jun-13 05:29N 47°53' E 035°07'0 0.0
2018-Jun-13 04:59N 47°53' E 035°07'0 0.0
2018-Jun-13 04:29N 47°53' E 035°07'0 0.0
2018-Jun-13 03:59N 47°53' E 035°07'0 0.0
2018-Jun-13 03:29N 47°53' E 035°07'0 0.0
2018-Jun-13 02:59N 47°53' E 035°07'0 0.0
2018-Jun-13 02:29N 47°53' E 035°07'0 0.0
2018-Jun-13 01:59N 47°53' E 035°07'0 0.0
2018-Jun-13 01:29N 47°53' E 035°07'0 0.0
2018-Jun-13 00:59N 47°53' E 035°07'0 0.0
2018-Jun-13 00:29N 47°53' E 035°07'0 0.0
2018-Jun-12 23:59N 47°53' E 035°07'0 0.0
2018-Jun-12 23:29N 47°53' E 035°07'0 0.0
2018-Jun-12 22:59N 47°53' E 035°07'0 0.0
2018-Jun-12 22:29N 47°53' E 035°07'0 0.0
2018-Jun-12 21:59N 47°53' E 035°07'0 0.0
2018-Jun-12 21:29N 47°53' E 035°07'0 0.0
2018-Jun-12 20:59N 47°53' E 035°07'0 0.0
2018-Jun-12 20:29N 47°53' E 035°07'0 0.0
2018-Jun-12 19:59N 47°53' E 035°07'0 0.0
2018-Jun-12 19:29N 47°53' E 035°07'0 0.0
2018-Jun-12 18:53N 47°53' E 035°07'0 0.0
2018-Jun-12 18:29N 47°53' E 035°07'0 0.0
2018-Jun-12 17:59N 47°53' E 035°07'0 0.0
2018-Jun-12 17:29N 47°53' E 035°07'0 0.0
2018-Jun-12 16:59N 47°53' E 035°07'0 0.0
2018-Jun-12 16:29N 47°53' E 035°07'0 0.0
2018-Jun-12 15:59N 47°53' E 035°07'0 0.0
2018-Jun-12 15:29N 47°53' E 035°07'0 0.0
2018-Jun-12 14:59N 47°53' E 035°07'0 0.0
2018-Jun-12 14:29N 47°53' E 035°07'0 0.0
2018-Jun-12 13:59N 47°53' E 035°07'0 0.0
2018-Jun-12 13:29N 47°53' E 035°07'0 0.0
2018-Jun-12 12:59N 47°53' E 035°07'0 0.0
2018-Jun-12 12:29N 47°53' E 035°07'0 0.0
2018-Jun-12 11:59N 47°53' E 035°07'0 0.0
2018-Jun-12 11:29N 47°53' E 035°07'0 0.0
2018-Jun-12 10:59N 47°53' E 035°07'0 0.0
2018-Jun-12 10:29N 47°53' E 035°07'0 0.0
2018-Jun-12 09:59N 47°53' E 035°07'0 0.0
2018-Jun-12 09:23N 47°53' E 035°07'0 0.0
2018-Jun-12 08:59N 47°53' E 035°07'0 0.0
2018-Jun-12 08:29N 47°53' E 035°07'0 0.0
2018-Jun-12 07:59N 47°53' E 035°07'0 0.0
2018-Jun-12 07:29N 47°53' E 035°07'0 0.0
2018-Jun-12 06:59N 47°53' E 035°07'0 0.0
2018-Jun-12 06:29N 47°53' E 035°07'0 0.0
2018-Jun-12 05:59N 47°53' E 035°07'0 0.0
2018-Jun-12 05:29N 47°53' E 035°07'0 0.0
2018-Jun-12 04:59N 47°53' E 035°07'0 0.0
2018-Jun-12 04:29N 47°53' E 035°07'0 0.0
2018-Jun-12 03:59N 47°53' E 035°07'0 0.0
2018-Jun-12 03:29N 47°53' E 035°07'0 0.0
2018-Jun-12 02:59N 47°53' E 035°07'0 0.0
2018-Jun-12 02:29N 47°53' E 035°07'0 0.0
2018-Jun-12 01:59N 47°53' E 035°07'0 0.0
2018-Jun-12 01:29N 47°53' E 035°07'0 0.0
2018-Jun-12 00:59N 47°53' E 035°07'0 0.0
2018-Jun-12 00:29N 47°53' E 035°07'0 0.0
2018-Jun-11 23:59N 47°53' E 035°07'0 0.0
2018-Jun-11 23:29N 47°53' E 035°07'0 0.0
2018-Jun-11 22:59N 47°53' E 035°07'0 0.0
2018-Jun-11 22:29N 47°53' E 035°07'0 0.0
2018-Jun-11 21:59N 47°53' E 035°07'0 0.0
2018-Jun-11 21:23N 47°53' E 035°07'0 0.0
2018-Jun-11 20:59N 47°53' E 035°07'0 0.0
2018-Jun-11 20:29N 47°53' E 035°07'0 0.0
2018-Jun-11 19:59N 47°53' E 035°07'0 0.0
2018-Jun-11 19:29N 47°53' E 035°07'0 0.0
2018-Jun-11 18:59N 47°53' E 035°07'0 0.0
2018-Jun-11 18:29N 47°53' E 035°07'0 0.0
2018-Jun-11 17:59N 47°53' E 035°07'0 0.0
2018-Jun-11 17:29N 47°53' E 035°07'0 0.0
2018-Jun-11 16:59N 47°53' E 035°07'0 0.0
2018-Jun-11 16:29N 47°53' E 035°07'0 0.0
2018-Jun-11 15:59N 47°53' E 035°07'0 0.0
2018-Jun-11 15:29N 47°53' E 035°07'0 0.0
2018-Jun-11 14:59N 47°53' E 035°07'0 0.0
2018-Jun-11 14:29N 47°53' E 035°07'0 0.0
2018-Jun-11 13:59N 47°53' E 035°07'0 0.0
2018-Jun-11 13:29N 47°53' E 035°07'0 0.0
2018-Jun-11 12:59N 47°53' E 035°07'0 0.0
2018-Jun-11 12:29N 47°53' E 035°07'0 0.0
2018-Jun-11 11:59N 47°53' E 035°07'0 0.0
2018-Jun-11 11:29N 47°53' E 035°07'0 0.0
2018-Jun-11 10:59N 47°53' E 035°07'0 0.0
2018-Jun-11 10:29N 47°53' E 035°07'0 0.1
2018-Jun-11 10:00N 47°53' E 035°07'1 2.3
2018-Jun-11 09:30N 47°52' E 035°05'0 0.4
2018-Jun-11 09:00N 47°52' E 035°05'2 5.0
2018-Jun-11 08:30N 47°50' E 035°07'  
Track history (hours):
 
Tides and Currents Weather Stations Pressure Air Temp Water Temp Dewpoint Dewpoint Depression Visibility Wind Speed Wind Dir Waves Ship Positions

Mekhanik Cherevko

Last reported at 2018-Jun-21 08:30 UTC. Time now 2018-Jun-21 08:44 UTC.
Position N 42°19' E 029°41'.

Length 98 m; draft 2.8 m.

Type: Cargo ship. MMSI: 272308000.

Date/timePositionNaut miles runAvg speedWind from/ knotsBaromVisibWave heightAir tempDewpointWater temp
2018-Jun-21 08:30N 42°19' E 029°41'5 9.4
2018-Jun-21 08:00N 42°14' E 029°39'5 9.5
2018-Jun-21 07:30N 42°09' E 029°37'5 9.5
2018-Jun-21 07:00N 42°05' E 029°35'  
2018-Jun-16 08:41N 42°44' E 029°45'2 9.9
2018-Jun-16 08:26N 42°47' E 029°46'410.1
2018-Jun-16 08:00N 42°51' E 029°48'510.0
2018-Jun-16 07:30N 42°55' E 029°50'510.0
2018-Jun-16 06:59N 43°00' E 029°52'1210.0
2018-Jun-16 05:45N 43°12' E 029°58'310.1
2018-Jun-16 05:27N 43°15' E 029°59'510.2
2018-Jun-16 05:00N 43°19' E 030°01'510.2
2018-Jun-16 04:30N 43°24' E 030°04'510.2
2018-Jun-16 04:00N 43°29' E 030°06'510.2
2018-Jun-16 03:30N 43°34' E 030°08'510.1
2018-Jun-16 03:01N 43°38' E 030°11'510.1
2018-Jun-16 02:30N 43°43' E 030°13'5 9.9
2018-Jun-16 02:00N 43°48' E 030°16'5 9.5
2018-Jun-16 01:30N 43°52' E 030°18'6 9.1
2018-Jun-16 00:52N 43°58' E 030°21'3 9.0
2018-Jun-16 00:30N 44°01' E 030°22'5 9.2
2018-Jun-15 23:59N 44°05' E 030°25'5 9.2
2018-Jun-15 23:29N 44°09' E 030°27'5 9.1
2018-Jun-15 22:56N 44°14' E 030°29'5 9.1
2018-Jun-15 22:26N 44°18' E 030°31'4 9.0
2018-Jun-15 22:00N 44°22' E 030°33'5 9.2
2018-Jun-15 21:25N 44°27' E 030°35'4 9.2
2018-Jun-15 21:00N 44°31' E 030°37'5 9.3
2018-Jun-15 20:28N 44°36' E 030°39'4 9.3
2018-Jun-15 20:00N 44°40' E 030°40'100 8.4
2018-Jun-15 08:01N 46°20' E 030°55'0 9.5
2018-Jun-15 07:58N 46°20' E 030°55'4 9.5
2018-Jun-15 07:30N 46°24' E 030°55'18 6.8
2018-Jun-15 04:51N 46°35' E 031°16'4 9.4
2018-Jun-15 04:26N 46°35' E 031°22'5 9.0
2018-Jun-15 03:52N 46°36' E 031°29'3 8.4
2018-Jun-15 03:27N 46°35' E 031°34'4 9.2
2018-Jun-15 03:00N 46°36' E 031°40'5 9.2
2018-Jun-15 02:30N 46°36' E 031°47'5 8.7
2018-Jun-15 01:58N 46°34' E 031°53'4 8.9
2018-Jun-15 01:30N 46°33' E 031°59'5 8.9
2018-Jun-15 00:59N 46°32' E 032°06'135 6.6
2018-Jun-14 04:30N 47°34' E 035°02'6 8.8
2018-Jun-14 03:48N 47°40' E 035°07'3 9.1
2018-Jun-14 03:29N 47°42' E 035°08'4 8.2
2018-Jun-14 03:00N 47°46' E 035°09'4 7.7
2018-Jun-14 02:30N 47°50' E 035°07'2 4.9
2018-Jun-14 02:00N 47°52' E 035°05'0 0.1
2018-Jun-14 01:30N 47°52' E 035°06'1 2.0
2018-Jun-14 01:01N 47°53' E 035°06'0 0.8
2018-Jun-14 00:29N 47°53' E 035°07'0 0.0
2018-Jun-13 23:53N 47°53' E 035°07'0 0.0
2018-Jun-13 23:29N 47°53' E 035°07'0 0.0
2018-Jun-13 22:59N 47°53' E 035°07'0 0.0
2018-Jun-13 22:29N 47°53' E 035°07'0 0.0
2018-Jun-13 21:59N 47°53' E 035°07'0 0.0
2018-Jun-13 21:29N 47°53' E 035°07'0 0.0
2018-Jun-13 20:59N 47°53' E 035°07'0 0.0
2018-Jun-13 20:29N 47°53' E 035°07'0 0.0
2018-Jun-13 19:59N 47°53' E 035°07'0 0.0
2018-Jun-13 19:29N 47°53' E 035°07'0 0.0
2018-Jun-13 18:59N 47°53' E 035°07'0 0.0
2018-Jun-13 18:29N 47°53' E 035°07'0 0.0
2018-Jun-13 17:59N 47°53' E 035°07'0 0.0
2018-Jun-13 17:29N 47°53' E 035°07'0 0.0
2018-Jun-13 16:59N 47°53' E 035°07'0 0.0
2018-Jun-13 16:29N 47°53' E 035°07'0 0.0
2018-Jun-13 15:59N 47°53' E 035°07'0 0.0
2018-Jun-13 15:29N 47°53' E 035°07'0 0.0
2018-Jun-13 14:59N 47°53' E 035°07'0 0.0
2018-Jun-13 14:29N 47°53' E 035°07'0 0.0
2018-Jun-13 13:47N 47°53' E 035°07'0 0.0
2018-Jun-13 13:29N 47°53' E 035°07'0 0.0
2018-Jun-13 12:59N 47°53' E 035°07'0 0.0
2018-Jun-13 12:29N 47°53' E 035°07'0 0.0
2018-Jun-13 11:59N 47°53' E 035°07'0 0.0
2018-Jun-13 11:29N 47°53' E 035°07'0 0.0
2018-Jun-13 10:59N 47°53' E 035°07'0 0.0
2018-Jun-13 10:29N 47°53' E 035°07'0 0.0
2018-Jun-13 09:59N 47°53' E 035°07'0 0.0
2018-Jun-13 09:29N 47°53' E 035°07'0 0.0
2018-Jun-13 08:59N 47°53' E 035°07'0 0.0
2018-Jun-13 08:29N 47°53' E 035°07'0 0.0
2018-Jun-13 07:59N 47°53' E 035°07'0 0.0
2018-Jun-13 07:29N 47°53' E 035°07'0 0.0
2018-Jun-13 06:59N 47°53' E 035°07'0 0.0
2018-Jun-13 06:29N 47°53' E 035°07'0 0.0
2018-Jun-13 05:59N 47°53' E 035°07'0 0.0
2018-Jun-13 05:29N 47°53' E 035°07'0 0.0
2018-Jun-13 04:59N 47°53' E 035°07'0 0.0
2018-Jun-13 04:29N 47°53' E 035°07'0 0.0
2018-Jun-13 03:59N 47°53' E 035°07'0 0.0
2018-Jun-13 03:29N 47°53' E 035°07'0 0.0
2018-Jun-13 02:59N 47°53' E 035°07'0 0.0
2018-Jun-13 02:29N 47°53' E 035°07'0 0.0
2018-Jun-13 01:59N 47°53' E 035°07'0 0.0
2018-Jun-13 01:29N 47°53' E 035°07'0 0.0
2018-Jun-13 00:59N 47°53' E 035°07'0 0.0
2018-Jun-13 00:29N 47°53' E 035°07'0 0.0
2018-Jun-12 23:59N 47°53' E 035°07'0 0.0
2018-Jun-12 23:29N 47°53' E 035°07'0 0.0
2018-Jun-12 22:59N 47°53' E 035°07'0 0.0
2018-Jun-12 22:29N 47°53' E 035°07'0 0.0
2018-Jun-12 21:59N 47°53' E 035°07'0 0.0
2018-Jun-12 21:29N 47°53' E 035°07'0 0.0
2018-Jun-12 20:59N 47°53' E 035°07'0 0.0
2018-Jun-12 20:29N 47°53' E 035°07'0 0.0
2018-Jun-12 19:59N 47°53' E 035°07'0 0.0
2018-Jun-12 19:29N 47°53' E 035°07'0 0.0
2018-Jun-12 18:53N 47°53' E 035°07'0 0.0
2018-Jun-12 18:29N 47°53' E 035°07'0 0.0
2018-Jun-12 17:59N 47°53' E 035°07'0 0.0
2018-Jun-12 17:29N 47°53' E 035°07'0 0.0
2018-Jun-12 16:59N 47°53' E 035°07'0 0.0
2018-Jun-12 16:29N 47°53' E 035°07'0 0.0
2018-Jun-12 15:59N 47°53' E 035°07'0 0.0
2018-Jun-12 15:29N 47°53' E 035°07'0 0.0
2018-Jun-12 14:59N 47°53' E 035°07'0 0.0
2018-Jun-12 14:29N 47°53' E 035°07'0 0.0
2018-Jun-12 13:59N 47°53' E 035°07'0 0.0
2018-Jun-12 13:29N 47°53' E 035°07'0 0.0
2018-Jun-12 12:59N 47°53' E 035°07'0 0.0
2018-Jun-12 12:29N 47°53' E 035°07'0 0.0
2018-Jun-12 11:59N 47°53' E 035°07'0 0.0
2018-Jun-12 11:29N 47°53' E 035°07'0 0.0
2018-Jun-12 10:59N 47°53' E 035°07'0 0.0
2018-Jun-12 10:29N 47°53' E 035°07'0 0.0
2018-Jun-12 09:59N 47°53' E 035°07'0 0.0
2018-Jun-12 09:23N 47°53' E 035°07'0 0.0
2018-Jun-12 08:59N 47°53' E 035°07'0 0.0
2018-Jun-12 08:29N 47°53' E 035°07'0 0.0
2018-Jun-12 07:59N 47°53' E 035°07'0 0.0
2018-Jun-12 07:29N 47°53' E 035°07'0 0.0
2018-Jun-12 06:59N 47°53' E 035°07'0 0.0
2018-Jun-12 06:29N 47°53' E 035°07'0 0.0
2018-Jun-12 05:59N 47°53' E 035°07'0 0.0
2018-Jun-12 05:29N 47°53' E 035°07'0 0.0
2018-Jun-12 04:59N 47°53' E 035°07'0 0.0
2018-Jun-12 04:29N 47°53' E 035°07'0 0.0
2018-Jun-12 03:59N 47°53' E 035°07'0 0.0
2018-Jun-12 03:29N 47°53' E 035°07'0 0.0
2018-Jun-12 02:59N 47°53' E 035°07'0 0.0
2018-Jun-12 02:29N 47°53' E 035°07'0 0.0
2018-Jun-12 01:59N 47°53' E 035°07'0 0.0
2018-Jun-12 01:29N 47°53' E 035°07'0 0.0
2018-Jun-12 00:59N 47°53' E 035°07'0 0.0
2018-Jun-12 00:29N 47°53' E 035°07'0 0.0
2018-Jun-11 23:59N 47°53' E 035°07'0 0.0
2018-Jun-11 23:29N 47°53' E 035°07'0 0.0
2018-Jun-11 22:59N 47°53' E 035°07'0 0.0
2018-Jun-11 22:29N 47°53' E 035°07'0 0.0
2018-Jun-11 21:59N 47°53' E 035°07'0 0.0
2018-Jun-11 21:23N 47°53' E 035°07'0 0.0
2018-Jun-11 20:59N 47°53' E 035°07'0 0.0
2018-Jun-11 20:29N 47°53' E 035°07'0 0.0
2018-Jun-11 19:59N 47°53' E 035°07'0 0.0
2018-Jun-11 19:29N 47°53' E 035°07'0 0.0
2018-Jun-11 18:59N 47°53' E 035°07'0 0.0
2018-Jun-11 18:29N 47°53' E 035°07'0 0.0
2018-Jun-11 17:59N 47°53' E 035°07'0 0.0
2018-Jun-11 17:29N 47°53' E 035°07'0 0.0
2018-Jun-11 16:59N 47°53' E 035°07'0 0.0
2018-Jun-11 16:29N 47°53' E 035°07'0 0.0
2018-Jun-11 15:59N 47°53' E 035°07'0 0.0
2018-Jun-11 15:29N 47°53' E 035°07'0 0.0
2018-Jun-11 14:59N 47°53' E 035°07'0 0.0
2018-Jun-11 14:29N 47°53' E 035°07'0 0.0
2018-Jun-11 13:59N 47°53' E 035°07'0 0.0
2018-Jun-11 13:29N 47°53' E 035°07'0 0.0
2018-Jun-11 12:59N 47°53' E 035°07'0 0.0
2018-Jun-11 12:29N 47°53' E 035°07'0 0.0
2018-Jun-11 11:59N 47°53' E 035°07'0 0.0
2018-Jun-11 11:29N 47°53' E 035°07'0 0.0
2018-Jun-11 10:59N 47°53' E 035°07'0 0.0
2018-Jun-11 10:29N 47°53' E 035°07'0 0.1
2018-Jun-11 10:00N 47°53' E 035°07'1 2.3
2018-Jun-11 09:30N 47°52' E 035°05'0 0.4
2018-Jun-11 09:00N 47°52' E 035°05'2 5.0
2018-Jun-11 08:30N 47°50' E 035°07'  

Dump ship's entire track history